Hlavní strana
METAR-TAF:

METAR-TAF

Letiště :

Billund, Dánsko

zeměpisná šířka: 55-44N, zeměpisná délka: 009-10E, výška: 75 m

Aktuální stav počasí

Zpráva byla vytvořena před 35 minutami, v 08:50 UTC
Severovýchodní vítr 6 kt, proměnlivý mezi severoseverozápadním a východním
Teplota 18°C
Vlhkost vzduchu 45%
Tlak 1029 hPa
Viditelnost 10 km a více

METAR: EKBI 300850Z AUTO 04006KT 330V080 9999 NCD 18/06 Q1029

Čas: 11:25 (09:25 UTC)

Předpověď počasí

Zpráva byla vytvořena před 4 hodinami a 22 minutami, v 05:03 UTC
Předpověď platná od 30 v 06 UTC do 31 v 06 UTC
Východoseverovýchodní vítr 6 kt
Viditelnost 10 km a více
Žádná oblačnost pod 1500 m, nevyskytují se cumulonimby.

TAF: EKBI 300503Z 3006/3106 06006KT CAVOK

Stav a předpovědi počasí z více než 4 000 letišť (zprávy METAR a TAF).

Červené a žluté tečky na mapě představují dostupné meteorologické stanice.

Když kurzor umístíte na tečku, zobrazí se název stanice.

Pak kliknutím zobrazíte stav a předpověď počasí.

Chcete-li změnit mapu, kliknutím na zelené tlačítko se znaménkem +mapu přiblížíte, kliknutím na zelené tlačítko se znaménkem – mapu oddálíte a kliknutím na zelené šipky přejdete na sousední mapy.


METAR-TAF: